Time;durP1;ratioP1;P1;durP2;ratioP2;P2;SDS_P1;SDS_P2;PMS_P1;PMS_P2;Temp;Humidity;BMP_temperature;BMP_pressure;BME280_temperature;BME280_humidity;BME280_pressure;Samples;Min_cycle;Max_cycle;Signal;HPM_P1;HPM_P2
2021/03/28 00:01:51;;;;;;;7.87;5.73;;;6.60;90.70;;;;;;4892419;29;20243;-81
2021/03/28 00:04:23;;;;;;;11.00;6.60;;;6.50;91.00;;;;;;4885754;29;20372;-83
2021/03/28 00:07:09;;;;;;;10.20;6.03;;;6.40;90.70;;;;;;4869875;29;20452;-83
2021/03/28 00:09:45;;;;;;;8.97;5.90;;;6.40;90.50;;;;;;4881549;29;21560;-83
2021/03/28 00:12:31;;;;;;;10.63;6.40;;;6.40;90.60;;;;;;4891659;29;20631;-84
2021/03/28 00:15:16;;;;;;;7.50;5.93;;;6.40;90.60;;;;;;4900025;29;20199;-85
2021/03/28 00:17:48;;;;;;;9.03;5.90;;;6.30;90.70;;;;;;4910122;29;20203;-84
2021/03/28 00:20:37;;;;;;;11.17;6.67;;;6.20;91.10;;;;;;4893261;29;20222;-84
2021/03/28 00:23:16;;;;;;;8.73;6.97;;;6.20;91.30;;;;;;4897648;29;20211;-83
2021/03/28 00:25:52;;;;;;;10.97;7.03;;;6.10;91.30;;;;;;4892678;29;20206;-84
2021/03/28 00:28:33;;;;;;;10.73;6.97;;;6.00;91.40;;;;;;4897224;29;20785;-83
2021/03/28 00:31:16;;;;;;;10.97;6.30;;;6.00;91.90;;;;;;4897989;29;20203;-83
2021/03/28 00:33:46;;;;;;;11.10;7.00;;;5.90;92.10;;;;;;4888899;29;20481;-83
2021/03/28 00:36:17;;;;;;;10.27;6.93;;;5.70;92.10;;;;;;4890338;29;20212;-81
2021/03/28 00:38:55;;;;;;;9.33;6.63;;;5.70;92.30;;;;;;4887543;29;20212;-83
2021/03/28 00:41:28;;;;;;;10.83;7.10;;;5.50;92.60;;;;;;4901385;29;20229;-83
2021/03/28 00:43:59;;;;;;;10.30;6.63;;;5.50;92.50;;;;;;4904512;29;20231;-82
2021/03/28 00:46:39;;;;;;;10.63;7.37;;;5.50;92.10;;;;;;4899004;29;20207;-83
2021/03/28 00:49:11;;;;;;;8.33;6.73;;;5.50;92.10;;;;;;4884514;29;20288;-82
2021/03/28 00:51:47;;;;;;;9.20;6.83;;;5.40;92.60;;;;;;4888477;29;20206;-82
2021/03/28 00:54:19;;;;;;;10.57;7.83;;;5.30;92.60;;;;;;4899038;29;20316;-82
2021/03/28 00:56:52;;;;;;;11.13;6.93;;;5.30;93.10;;;;;;4886511;29;20220;-82
2021/03/28 00:59:23;;;;;;;10.77;7.47;;;5.20;93.10;;;;;;4882007;29;20209;-82
2021/03/28 01:02:03;;;;;;;13.87;7.90;;;5.20;93.70;;;;;;4883042;29;20578;-83
2021/03/28 01:04:53;;;;;;;11.80;7.70;;;5.20;93.90;;;;;;4876464;29;20298;-85
2021/03/28 01:07:41;;;;;;;12.03;7.53;;;5.10;94.10;;;;;;4882391;29;20627;-84
2021/03/28 01:10:53;;;;;;;9.73;7.70;;;5.10;94.20;;;;;;4883230;29;20245;-85
2021/03/28 01:13:39;;;;;;;13.03;8.00;;;5.10;95.30;;;;;;4888875;29;20210;-82
2021/03/28 01:16:54;;;;;;;11.93;7.93;;;5.10;95.10;;;;;;4884515;29;20416;-82
2021/03/28 01:20:04;;;;;;;10.97;8.03;;;5.10;95.20;;;;;;4880724;29;20633;-82
2021/03/28 01:22:42;;;;;;;12.60;8.57;;;5.10;95.40;;;;;;4879310;29;20249;-84
2021/03/28 01:25:35;;;;;;;11.87;8.50;;;5.00;95.30;;;;;;4883244;29;20640;-82
2021/03/28 01:28:19;;;;;;;11.37;8.67;;;5.00;95.20;;;;;;4882178;29;20378;-83
2021/03/28 01:30:51;;;;;;;11.50;8.27;;;5.00;95.40;;;;;;4883134;29;20207;-83
2021/03/28 01:33:31;;;;;;;13.60;9.03;;;4.90;95.60;;;;;;4889495;29;20211;-83
2021/03/28 01:36:07;;;;;;;12.37;9.23;;;4.80;96.20;;;;;;4884377;29;20618;-83
2021/03/28 01:38:39;;;;;;;13.60;9.37;;;4.70;96.50;;;;;;4885135;29;20219;-85
2021/03/28 01:41:13;;;;;;;14.47;8.87;;;4.80;96.20;;;;;;4882436;29;20238;-83
2021/03/28 01:43:50;;;;;;;12.40;9.20;;;4.80;96.10;;;;;;4882359;29;20212;-83
2021/03/28 01:46:30;;;;;;;16.00;9.17;;;4.70;96.00;;;;;;4880388;29;20208;-83
2021/03/28 01:48:59;;;;;;;13.03;8.83;;;4.80;96.80;;;;;;4881914;29;20214;-84
2021/03/28 01:52:00;;;;;;;15.77;9.37;;;4.70;96.20;;;;;;4884970;29;20201;-83
2021/03/28 01:54:40;;;;;;;12.83;9.17;;;4.70;96.00;;;;;;4872958;29;20220;-83
2021/03/28 01:57:17;;;;;;;13.83;8.73;;;4.60;96.70;;;;;;4882963;29;20620;-84
2021/03/28 02:00:10;;;;;;;15.93;9.53;;;4.70;97.10;;;;;;4882117;29;20209;-83
2021/03/28 02:02:41;;;;;;;12.70;8.40;;;4.70;97.10;;;;;;4897592;29;20237;-83
2021/03/28 02:05:23;;;;;;;11.83;8.37;;;4.90;96.50;;;;;;4883336;29;20230;-83
2021/03/28 02:08:02;;;;;;;11.57;8.43;;;5.00;94.90;;;;;;4901801;29;20233;-81
2021/03/28 02:10:48;;;;;;;11.57;8.10;;;5.10;94.00;;;;;;4902246;29;20206;-84
2021/03/28 02:13:25;;;;;;;10.00;8.13;;;5.30;93.20;;;;;;4900177;29;20653;-82
2021/03/28 02:16:10;;;;;;;10.77;7.10;;;5.30;92.80;;;;;;4882179;29;20202;-83
2021/03/28 02:18:51;;;;;;;9.83;6.67;;;5.40;92.40;;;;;;4883715;29;20214;-83
2021/03/28 02:21:28;;;;;;;11.47;7.80;;;5.40;92.20;;;;;;4888063;29;20238;-83
2021/03/28 02:24:00;;;;;;;11.73;7.37;;;5.30;92.00;;;;;;4880491;29;20266;-85
2021/03/28 02:26:34;;;;;;;11.37;6.57;;;5.40;91.90;;;;;;4883822;29;20208;-85
2021/03/28 02:29:14;;;;;;;9.50;6.63;;;5.30;92.10;;;;;;4889605;29;20286;-84
2021/03/28 02:32:06;;;;;;;9.73;6.80;;;5.10;92.40;;;;;;4887132;29;20208;-85
2021/03/28 02:34:41;;;;;;;9.70;6.67;;;5.10;92.20;;;;;;4887194;29;20211;-84
2021/03/28 02:37:15;;;;;;;9.07;6.50;;;5.00;92.40;;;;;;4882839;29;20693;-83
2021/03/28 02:39:50;;;;;;;11.33;7.07;;;4.90;92.50;;;;;;4893281;29;20792;-84
2021/03/28 02:42:30;;;;;;;8.87;6.30;;;4.90;92.40;;;;;;4886948;29;20237;-83
2021/03/28 02:45:18;;;;;;;11.00;6.37;;;4.80;92.30;;;;;;4885738;29;20706;-84
2021/03/28 02:48:17;;;;;;;8.53;6.20;;;4.80;92.40;;;;;;4887305;29;20211;-85
2021/03/28 02:51:15;;;;;;;9.73;6.33;;;4.70;92.20;;;;;;4892356;29;20205;-81
2021/03/28 02:54:14;;;;;;;11.13;6.37;;;4.80;92.40;;;;;;4868847;29;20246;-83
2021/03/28 02:56:58;;;;;;;10.37;6.60;;;4.50;92.60;;;;;;4895453;29;20514;-82
2021/03/28 02:59:39;;;;;;;10.80;6.33;;;4.40;92.90;;;;;;4910024;29;20313;-84
2021/03/28 03:02:33;;;;;;;10.00;6.37;;;4.40;93.00;;;;;;4895307;29;20490;-82
2021/03/28 03:05:17;;;;;;;8.47;6.00;;;4.40;93.30;;;;;;4893211;29;20225;-83
2021/03/28 03:07:58;;;;;;;10.90;6.90;;;4.30;93.40;;;;;;4891066;29;20481;-83
2021/03/28 03:10:57;;;;;;;10.10;7.13;;;4.30;93.70;;;;;;4893981;29;20230;-81
2021/03/28 03:13:49;;;;;;;12.03;7.23;;;4.20;93.70;;;;;;4904638;29;20208;-83
2021/03/28 03:16:24;;;;;;;11.90;8.83;;;4.30;93.80;;;;;;4901810;29;20292;-84
2021/03/28 03:19:19;;;;;;;12.63;8.17;;;4.20;93.60;;;;;;4897932;29;20692;-83
2021/03/28 03:22:14;;;;;;;10.77;7.53;;;4.30;93.30;;;;;;4901900;29;20239;-82
2021/03/28 03:25:18;;;;;;;9.73;6.70;;;4.30;93.10;;;;;;4894038;29;20232;-83
2021/03/28 03:28:22;;;;;;;13.53;7.27;;;4.20;93.10;;;;;;4895682;29;20210;-81
2021/03/28 03:31:14;;;;;;;9.57;6.07;;;4.20;93.40;;;;;;4887831;29;20606;-82
2021/03/28 03:34:18;;;;;;;12.00;6.70;;;4.20;93.50;;;;;;4906826;29;20186;-84
2021/03/28 03:37:04;;;;;;;11.13;7.37;;;4.10;93.50;;;;;;4909076;29;20277;-83
2021/03/28 03:39:58;;;;;;;10.30;6.90;;;4.00;93.90;;;;;;4901801;29;20272;-83
2021/03/28 03:42:59;;;;;;;11.67;7.77;;;4.00;94.50;;;;;;4888928;29;20243;-83
2021/03/28 03:45:38;;;;;;;10.60;7.70;;;4.00;94.30;;;;;;4887743;29;20205;-80
2021/03/28 03:48:16;;;;;;;12.50;7.90;;;3.90;94.30;;;;;;4882253;29;20204;-83
2021/03/28 03:51:11;;;;;;;11.73;8.40;;;3.90;94.40;;;;;;4887399;29;20216;-83
2021/03/28 03:53:50;;;;;;;12.97;8.23;;;3.90;94.40;;;;;;4887050;29;20219;-83
2021/03/28 03:56:32;;;;;;;13.20;8.77;;;3.80;94.70;;;;;;4888643;29;20284;-84
2021/03/28 03:59:14;;;;;;;12.10;8.63;;;3.90;95.00;;;;;;4891041;29;20215;-83
2021/03/28 04:01:56;;;;;;;12.50;8.63;;;3.90;94.80;;;;;;4889031;29;20576;-82
2021/03/28 04:04:35;;;;;;;13.07;9.07;;;3.80;94.60;;;;;;4889653;29;20614;-83
2021/03/28 04:07:36;;;;;;;12.10;8.47;;;3.80;95.10;;;;;;4886504;29;20637;-83
2021/03/28 04:10:28;;;;;;;14.53;8.97;;;3.80;95.20;;;;;;4887733;29;20388;-85
2021/03/28 04:13:11;;;;;;;13.83;9.07;;;3.60;95.10;;;;;;4885136;29;20403;-84
2021/03/28 04:15:52;;;;;;;13.30;9.33;;;3.70;95.40;;;;;;4884724;29;20451;-84
2021/03/28 04:18:48;;;;;;;14.10;8.90;;;3.70;95.70;;;;;;4886515;29;20637;-81
2021/03/28 04:21:29;;;;;;;14.43;9.10;;;3.70;96.00;;;;;;4887267;29;20697;-84
2021/03/28 04:24:09;;;;;;;14.03;9.40;;;3.80;95.80;;;;;;4903823;29;20255;-83
2021/03/28 04:27:01;;;;;;;13.90;9.47;;;3.80;95.50;;;;;;4885364;29;20234;-84
2021/03/28 04:29:30;;;;;;;13.37;9.63;;;3.80;95.30;;;;;;4888890;29;20567;-83
2021/03/28 04:32:20;;;;;;;13.43;9.60;;;4.00;95.20;;;;;;4884039;29;20200;-82
2021/03/28 04:34:59;;;;;;;14.23;9.93;;;3.90;95.20;;;;;;4889311;29;20212;-83
2021/03/28 04:37:35;;;;;;;12.60;9.63;;;3.80;95.20;;;;;;4887906;29;20695;-83
2021/03/28 04:40:37;;;;;;;17.27;10.07;;;3.90;95.20;;;;;;4891613;29;20202;-83
2021/03/28 04:43:37;;;;;;;14.60;9.40;;;3.90;95.20;;;;;;4827512;29;20250;-83
2021/03/28 04:46:40;;;;;;;11.60;8.80;;;3.90;95.00;;;;;;4897347;29;20256;-83
2021/03/28 04:49:33;;;;;;;13.63;8.60;;;3.90;95.20;;;;;;4871262;29;20220;-82
2021/03/28 04:52:57;;;;;;;12.77;8.93;;;4.00;95.20;;;;;;4894998;29;20647;-84
2021/03/28 04:55:57;;;;;;;11.90;8.20;;;4.00;94.40;;;;;;4882310;29;20205;-83
2021/03/28 04:58:34;;;;;;;11.60;8.70;;;4.10;94.20;;;;;;4892130;29;20685;-84
2021/03/28 05:01:31;;;;;;;14.47;8.30;;;4.20;94.20;;;;;;4909796;29;20367;-82
2021/03/28 05:04:15;;;;;;;10.97;8.13;;;4.20;93.10;;;;;;4904942;29;20264;-83
2021/03/28 05:07:20;;;;;;;10.30;7.97;;;4.20;93.50;;;;;;4887680;29;20206;-83
2021/03/28 05:10:13;;;;;;;10.97;8.27;;;4.30;92.80;;;;;;4861792;29;20228;-83
2021/03/28 05:13:23;;;;;;;11.40;8.67;;;4.30;92.90;;;;;;4890111;29;20288;-82
2021/03/28 05:16:40;;;;;;;10.60;8.23;;;4.40;92.80;;;;;;4886841;29;20202;-82
2021/03/28 05:19:57;;;;;;;13.03;8.30;;;4.50;92.30;;;;;;4889490;29;20220;-84
2021/03/28 05:23:19;;;;;;;10.87;8.10;;;4.50;91.90;;;;;;4894987;29;20230;-83
2021/03/28 05:26:20;;;;;;;10.33;8.03;;;4.50;91.90;;;;;;4891382;29;20210;-83
2021/03/28 05:29:15;;;;;;;13.20;8.03;;;4.60;92.20;;;;;;4885328;29;20459;-83
2021/03/28 05:32:16;;;;;;;14.03;8.23;;;4.70;91.80;;;;;;4888408;29;20396;-81
2021/03/28 05:35:10;;;;;;;11.67;8.00;;;4.70;91.40;;;;;;4904713;29;20231;-82
2021/03/28 05:38:12;;;;;;;10.77;7.67;;;4.80;91.50;;;;;;4884646;29;20219;-83
2021/03/28 05:40:59;;;;;;;13.53;7.17;;;4.80;91.20;;;;;;4891436;29;20217;-83
2021/03/28 05:43:59;;;;;;;9.83;7.10;;;4.80;91.00;;;;;;4903606;29;20231;-83
2021/03/28 05:46:57;;;;;;;9.33;6.70;;;4.90;91.10;;;;;;4895301;29;20211;-82
2021/03/28 05:49:47;;;;;;;10.40;7.07;;;5.00;90.90;;;;;;4882506;29;20214;-83
2021/03/28 05:52:48;;;;;;;10.53;6.90;;;5.10;91.00;;;;;;4905191;29;20204;-83
2021/03/28 05:55:56;;;;;;;11.67;7.23;;;5.10;90.30;;;;;;4880260;29;20218;-83
2021/03/28 05:58:49;;;;;;;12.07;7.60;;;5.10;90.30;;;;;;4863492;29;20274;-84
2021/03/28 06:01:39;;;;;;;11.70;8.07;;;5.20;90.70;;;;;;4910531;29;20204;-83
2021/03/28 06:04:44;;;;;;;10.43;7.67;;;5.20;90.40;;;;;;4908377;29;20195;-85
2021/03/28 06:07:58;;;;;;;13.57;8.33;;;5.20;90.50;;;;;;4910936;29;20203;-83
2021/03/28 06:11:10;;;;;;;11.47;7.73;;;5.30;90.40;;;;;;4908893;29;20455;-83
2021/03/28 06:14:17;;;;;;;20.27;9.17;;;5.30;90.00;;;;;;4905633;29;20214;-83
2021/03/28 06:17:09;;;;;;;10.73;7.60;;;5.40;90.20;;;;;;4908684;29;20230;-83
2021/03/28 06:20:16;;;;;;;11.17;8.83;;;5.50;90.30;;;;;;4909358;29;20220;-85
2021/03/28 06:23:12;;;;;;;10.90;7.77;;;5.50;90.00;;;;;;4893562;29;20218;-82
2021/03/28 06:26:27;;;;;;;10.20;7.77;;;5.50;89.80;;;;;;4896282;29;20204;-85
2021/03/28 06:29:32;;;;;;;9.43;7.80;;;5.50;89.70;;;;;;4891186;29;20278;-82
2021/03/28 06:32:36;;;;;;;11.87;7.90;;;5.40;90.00;;;;;;4891427;29;20241;-83
2021/03/28 06:35:41;;;;;;;13.90;7.83;;;5.30;90.30;;;;;;4893384;29;20565;-82
2021/03/28 06:38:57;;;;;;;11.40;8.20;;;5.20;90.30;;;;;;4892185;29;20200;-82
2021/03/28 06:41:51;;;;;;;12.17;8.70;;;5.30;90.60;;;;;;4895453;29;20279;-82
2021/03/28 06:45:04;;;;;;;11.20;7.97;;;5.30;90.80;;;;;;4865648;29;20227;-83
2021/03/28 06:48:15;;;;;;;10.27;7.90;;;5.30;90.10;;;;;;4871588;29;20216;-84
2021/03/28 06:51:07;;;;;;;9.73;7.57;;;5.30;90.20;;;;;;4879771;29;20205;-84
2021/03/28 06:54:25;;;;;;;11.17;8.47;;;5.20;90.50;;;;;;4879354;29;20715;-85
2021/03/28 06:57:25;;;;;;;11.57;7.67;;;5.20;90.40;;;;;;4853992;29;20224;-82
2021/03/28 07:00:18;;;;;;;13.77;8.47;;;5.30;90.50;;;;;;4847031;29;20618;-84
2021/03/28 07:03:26;;;;;;;12.33;8.57;;;5.20;90.90;;;;;;4864984;29;20246;-83
2021/03/28 07:06:03;;;;;;;11.37;7.97;;;5.30;90.40;;;;;;4880558;29;20207;-82
2021/03/28 07:09:13;;;;;;;9.93;8.40;;;5.40;90.50;;;;;;4883820;29;20713;-82
2021/03/28 07:11:53;;;;;;;11.20;8.30;;;5.50;90.30;;;;;;4851100;29;20221;-83
2021/03/28 07:14:39;;;;;;;13.07;8.50;;;5.50;90.60;;;;;;4887452;29;20204;-82
2021/03/28 07:17:39;;;;;;;12.43;8.57;;;5.50;90.60;;;;;;4878110;29;20446;-84
2021/03/28 07:20:39;;;;;;;11.83;9.13;;;5.50;90.60;;;;;;4890165;29;20219;-85
2021/03/28 07:23:48;;;;;;;14.77;8.80;;;5.70;90.70;;;;;;4893376;29;20266;-84
2021/03/28 07:26:31;;;;;;;13.43;8.10;;;5.90;91.20;;;;;;4910695;29;20207;-82
2021/03/28 07:29:44;;;;;;;12.93;8.10;;;6.00;90.50;;;;;;4908791;29;20779;-81
2021/03/28 07:32:30;;;;;;;13.33;8.50;;;6.20;90.10;;;;;;4882607;29;20192;-84
2021/03/28 07:35:32;;;;;;;10.33;7.83;;;6.20;89.30;;;;;;4895314;29;20220;-84
2021/03/28 07:38:38;;;;;;;13.43;8.27;;;6.20;89.80;;;;;;4903670;29;20226;-83
2021/03/28 07:41:33;;;;;;;9.27;7.23;;;6.30;88.80;;;;;;4908355;29;20188;-83
2021/03/28 07:44:47;;;;;;;13.20;8.17;;;6.30;89.40;;;;;;4911704;29;20231;-83
2021/03/28 07:47:50;;;;;;;13.50;7.17;;;6.50;89.30;;;;;;4911464;29;20757;-83
2021/03/28 07:50:44;;;;;;;9.90;7.20;;;6.60;87.60;;;;;;4916805;29;20194;-84
2021/03/28 07:53:42;;;;;;;13.37;7.10;;;6.50;87.20;;;;;;4913655;29;20232;-82
2021/03/28 07:56:31;;;;;;;10.53;7.50;;;6.60;86.90;;;;;;4912518;29;20519;-81
2021/03/28 07:59:08;;;;;;;11.17;7.93;;;6.70;87.10;;;;;;4912415;29;20221;-83
2021/03/28 08:02:23;;;;;;;12.63;8.13;;;6.80;87.00;;;;;;4918115;29;20196;-84
2021/03/28 08:05:14;;;;;;;14.13;7.97;;;6.70;86.40;;;;;;4849346;29;20230;-86
2021/03/28 08:07:51;;;;;;;12.93;7.83;;;6.80;86.20;;;;;;4904883;29;20765;-82
2021/03/28 08:11:04;;;;;;;12.63;7.57;;;6.90;86.40;;;;;;4906842;29;20246;-83
2021/03/28 08:14:11;;;;;;;10.00;7.53;;;7.00;86.10;;;;;;4872585;29;20214;-84
2021/03/28 08:17:11;;;;;;;12.33;8.03;;;7.00;85.60;;;;;;4901191;29;20206;-85
2021/03/28 08:20:09;;;;;;;11.70;7.93;;;7.10;85.00;;;;;;4904656;29;20245;-82
2021/03/28 08:23:09;;;;;;;11.80;8.03;;;7.10;85.60;;;;;;4876017;29;20601;-83
2021/03/28 08:26:25;;;;;;;13.07;8.60;;;7.20;85.20;;;;;;4882560;29;20234;-83
2021/03/28 08:29:30;;;;;;;11.03;8.03;;;7.30;84.90;;;;;;4849766;29;20216;-86
2021/03/28 08:32:22;;;;;;;12.10;8.57;;;7.30;84.80;;;;;;4837157;29;20226;-83
2021/03/28 08:35:15;;;;;;;10.07;7.27;;;7.30;84.60;;;;;;4863296;29;20237;-84
2021/03/28 08:38:28;;;;;;;11.40;7.57;;;7.20;84.10;;;;;;4884192;29;20231;-83
2021/03/28 08:41:17;;;;;;;8.83;7.03;;;7.00;84.30;;;;;;4875967;29;20218;-85
2021/03/28 08:44:28;;;;;;;10.73;7.20;;;6.90;84.00;;;;;;4861874;29;20238;-83
2021/03/28 08:47:36;;;;;;;10.60;8.00;;;7.20;84.50;;;;;;4878402;29;20502;-82
2021/03/28 08:50:16;;;;;;;11.03;7.70;;;7.60;84.10;;;;;;4850583;29;20758;-83
2021/03/28 08:53:19;;;;;;;11.63;6.93;;;7.70;83.80;;;;;;4856905;29;20242;-83
2021/03/28 08:56:14;;;;;;;12.87;7.93;;;7.60;82.90;;;;;;4842931;29;20240;-84
2021/03/28 08:58:49;;;;;;;10.00;7.50;;;7.50;83.70;;;;;;4876994;29;20215;-83
2021/03/28 09:01:27;;;;;;;12.13;8.20;;;7.50;83.40;;;;;;4875313;29;20264;-83
2021/03/28 09:04:17;;;;;;;9.47;7.80;;;7.60;83.50;;;;;;4891099;29;20231;-83
2021/03/28 09:07:05;;;;;;;9.77;8.20;;;7.70;83.40;;;;;;4879342;29;20644;-84
2021/03/28 09:09:48;;;;;;;11.43;7.80;;;7.70;83.40;;;;;;4864923;29;20713;-84
2021/03/28 09:12:41;;;;;;;11.00;7.63;;;7.70;82.60;;;;;;4845233;29;20222;-82
2021/03/28 09:15:26;;;;;;;11.97;7.80;;;7.70;82.80;;;;;;4884988;29;20212;-82
2021/03/28 09:18:04;;;;;;;11.53;7.90;;;7.60;82.80;;;;;;4892916;29;20396;-84
2021/03/28 09:20:48;;;;;;;12.00;7.83;;;7.50;83.10;;;;;;5019326;23;20303;-83
2021/03/28 09:23:35;;;;;;;9.60;7.23;;;7.50;83.30;;;;;;5126088;23;20230;-82
2021/03/28 09:26:14;;;;;;;11.13;7.57;;;7.50;82.70;;;;;;4982947;23;20249;-81
2021/03/28 09:28:58;;;;;;;9.37;7.03;;;7.60;83.30;;;;;;4971637;28;20196;-83
2021/03/28 09:31:32;;;;;;;10.87;7.63;;;7.70;83.30;;;;;;4973383;28;20204;-83
2021/03/28 09:34:17;;;;;;;10.50;7.27;;;7.70;83.00;;;;;;4971081;28;20208;-83
2021/03/28 09:37:02;;;;;;;10.93;7.90;;;7.80;83.00;;;;;;4966882;28;20693;-84
2021/03/28 09:39:52;;;;;;;11.60;7.20;;;7.90;83.10;;;;;;4953359;28;20196;-83
2021/03/28 09:42:52;;;;;;;10.00;7.87;;;7.90;82.80;;;;;;4967646;28;20331;-83
2021/03/28 09:46:06;;;;;;;9.10;7.63;;;8.20;82.90;;;;;;4968169;28;20209;-85
2021/03/28 09:49:16;;;;;;;11.10;7.57;;;8.30;82.80;;;;;;4934270;28;20240;-83
2021/03/28 09:52:28;;;;;;;10.20;8.10;;;8.30;82.70;;;;;;4958131;28;20559;-83
2021/03/28 09:55:32;;;;;;;12.80;7.63;;;8.40;82.70;;;;;;4969020;28;20447;-83
2021/03/28 09:58:26;;;;;;;9.47;7.90;;;8.40;82.40;;;;;;4975848;28;20213;-82
2021/03/28 10:01:16;;;;;;;12.23;8.40;;;8.30;83.00;;;;;;4963831;28;20366;-82
2021/03/28 10:03:54;;;;;;;11.10;8.13;;;8.20;83.00;;;;;;4968443;28;20248;-83
2021/03/28 10:06:31;;;;;;;10.70;8.27;;;8.10;83.40;;;;;;4945177;28;20228;-84
2021/03/28 10:09:19;;;;;;;12.50;7.70;;;8.50;83.10;;;;;;4973062;28;20205;-84
2021/03/28 10:11:53;;;;;;;12.20;8.93;;;8.80;82.90;;;;;;4966307;28;20208;-83
2021/03/28 10:14:46;;;;;;;12.30;8.00;;;8.90;82.40;;;;;;4949729;28;20222;-83
2021/03/28 10:17:39;;;;;;;10.27;7.77;;;9.00;81.70;;;;;;4966773;28;20197;-83
2021/03/28 10:20:46;;;;;;;10.60;7.10;;;9.00;81.60;;;;;;4969670;28;20214;-82
2021/03/28 10:23:39;;;;;;;15.30;7.20;;;9.30;81.80;;;;;;4970096;28;20236;-82
2021/03/28 10:26:53;;;;;;;11.87;8.27;;;9.00;80.80;;;;;;4974231;28;20260;-84
2021/03/28 10:29:44;;;;;;;11.97;7.90;;;9.00;81.30;;;;;;4966378;28;20738;-83
2021/03/28 10:32:32;;;;;;;8.50;6.73;;;9.00;81.40;;;;;;4952639;28;20303;-84
2021/03/28 10:35:30;;;;;;;9.17;6.67;;;9.30;81.10;;;;;;4977974;28;20409;-84
2021/03/28 10:38:17;;;;;;;9.80;6.47;;;9.30;80.20;;;;;;4975571;28;20182;-84
2021/03/28 10:40:52;;;;;;;8.80;6.70;;;9.30;80.10;;;;;;4947521;28;20212;-83
2021/03/28 10:43:57;;;;;;;9.87;6.77;;;9.40;80.50;;;;;;4967028;28;20232;-84
2021/03/28 10:47:07;;;;;;;10.20;6.73;;;9.40;79.90;;;;;;4978915;28;20219;-87
2021/03/28 10:50:05;;;;;;;9.00;6.80;;;9.10;79.70;;;;;;4974408;28;20228;-83
2021/03/28 10:53:26;;;;;;;8.80;6.90;;;8.90;79.80;;;;;;4976112;28;20277;-85
2021/03/28 10:56:36;;;;;;;10.73;7.00;;;8.90;79.80;;;;;;4974742;28;20295;-84
2021/03/28 11:00:07;;;;;;;9.53;7.27;;;9.10;80.20;;;;;;4962175;28;20197;-83
2021/03/28 11:03:29;;;;;;;9.80;6.83;;;8.80;79.50;;;;;;4961685;28;20349;-84
2021/03/28 11:06:28;;;;;;;8.63;7.10;;;8.60;80.10;;;;;;4875738;29;20218;-84
2021/03/28 11:09:19;;;;;;;12.63;6.87;;;8.90;80.40;;;;;;4886642;29;20226;-83
2021/03/28 11:12:15;;;;;;;11.33;6.93;;;9.10;79.70;;;;;;4916085;29;20363;-83
2021/03/28 11:15:21;;;;;;;11.70;7.30;;;9.20;79.70;;;;;;4916207;29;20741;-82
2021/03/28 11:18:34;;;;;;;11.00;7.07;;;9.30;79.50;;;;;;4903525;29;20360;-82
2021/03/28 11:21:30;;;;;;;8.83;7.07;;;9.40;79.70;;;;;;4920649;29;20210;-84
2021/03/28 11:24:22;;;;;;;9.90;6.90;;;9.60;79.10;;;;;;4904507;29;20285;-84
2021/03/28 11:27:54;;;;;;;9.00;6.87;;;9.30;78.80;;;;;;4910956;29;20282;-84
2021/03/28 11:30:40;;;;;;;9.23;7.43;;;9.00;79.50;;;;;;4913495;29;20215;-84
2021/03/28 11:33:21;;;;;;;7.90;6.90;;;8.80;79.80;;;;;;4911323;29;20223;-84
2021/03/28 11:36:12;;;;;;;10.10;7.00;;;8.70;79.70;;;;;;4906948;29;20217;-84
2021/03/28 11:39:18;;;;;;;8.17;6.13;;;8.70;80.20;;;;;;4905337;28;20199;-83
2021/03/28 11:42:23;;;;;;;11.30;5.37;;;8.90;78.90;;;;;;4961807;28;20200;-82
2021/03/28 11:45:24;;;;;;;8.60;5.57;;;9.00;78.30;;;;;;4960538;28;20239;-84
2021/03/28 11:48:28;;;;;;;8.17;5.17;;;8.90;78.70;;;;;;4965978;28;20212;-82
2021/03/28 11:51:15;;;;;;;6.30;5.70;;;8.80;78.30;;;;;;4962977;28;20251;-83
2021/03/28 11:53:52;;;;;;;6.90;5.33;;;8.80;78.60;;;;;;4966656;28;20208;-82
2021/03/28 11:56:49;;;;;;;8.40;5.83;;;8.80;78.80;;;;;;4964640;28;20298;-84
2021/03/28 11:59:34;;;;;;;7.73;5.20;;;8.70;78.70;;;;;;4960111;28;20260;-84
2021/03/28 12:02:22;;;;;;;9.90;6.60;;;8.70;78.90;;;;;;4963098;28;20197;-84
2021/03/28 12:05:12;;;;;;;8.17;5.70;;;8.80;79.10;;;;;;4962482;28;20221;-83
2021/03/28 12:07:44;;;;;;;8.27;6.07;;;8.90;79.00;;;;;;4967773;28;20570;-84
2021/03/28 12:10:30;;;;;;;10.20;6.20;;;8.90;79.10;;;;;;4974244;28;20198;-82
2021/03/28 12:13:26;;;;;;;8.07;5.77;;;8.90;79.00;;;;;;4976724;28;20228;-83
2021/03/28 12:16:04;;;;;;;9.60;4.80;;;8.90;78.70;;;;;;4970474;28;20207;-83
2021/03/28 12:18:43;;;;;;;6.63;4.20;;;8.90;77.70;;;;;;4951095;28;20209;-83
2021/03/28 12:21:54;;;;;;;6.47;4.60;;;8.90;77.00;;;;;;4953302;28;20233;-83
2021/03/28 12:24:28;;;;;;;8.20;5.13;;;9.40;77.00;;;;;;4980733;28;20224;-83
2021/03/28 12:27:02;;;;;;;7.37;5.00;;;9.70;76.20;;;;;;4962798;28;20198;-81
2021/03/28 12:29:46;;;;;;;10.33;5.00;;;10.00;76.30;;;;;;4967826;28;20211;-84
2021/03/28 12:33:00;;;;;;;8.17;5.13;;;10.10;75.40;;;;;;4970286;28;20272;-83
2021/03/28 12:36:06;;;;;;;7.90;4.93;;;10.20;75.80;;;;;;4971120;28;20342;-83
2021/03/28 12:38:54;;;;;;;6.87;4.70;;;10.60;74.90;;;;;;4970367;28;20211;-84
2021/03/28 12:41:37;;;;;;;5.70;4.40;;;10.80;74.30;;;;;;4965942;28;20642;-85
2021/03/28 12:44:31;;;;;;;5.67;4.23;;;10.90;73.40;;;;;;4968633;28;20226;-82
2021/03/28 12:47:14;;;;;;;6.80;4.40;;;11.10;72.80;;;;;;4965229;28;20434;-84
2021/03/28 12:49:50;;;;;;;6.77;5.20;;;11.00;71.80;;;;;;4969259;28;20200;-84
2021/03/28 12:52:34;;;;;;;7.23;5.43;;;10.80;71.30;;;;;;4959189;28;20201;-82
2021/03/28 12:55:18;;;;;;;9.70;5.90;;;10.50;71.60;;;;;;4944284;28;20209;-84
2021/03/28 12:57:58;;;;;;;7.40;5.97;;;10.10;72.50;;;;;;4943241;28;20208;-82
2021/03/28 13:00:38;;;;;;;7.90;5.50;;;10.00;73.70;;;;;;4948810;28;20222;-83
2021/03/28 13:03:18;;;;;;;8.37;5.63;;;9.90;74.00;;;;;;4962077;28;20239;-81
2021/03/28 13:06:28;;;;;;;7.07;5.20;;;9.90;73.20;;;;;;4966303;28;20260;-84
2021/03/28 13:09:01;;;;;;;7.57;5.67;;;9.90;73.30;;;;;;4961619;28;20207;-84
2021/03/28 13:11:58;;;;;;;8.57;5.20;;;9.70;73.20;;;;;;4962370;28;20236;-82
2021/03/28 13:14:38;;;;;;;7.17;5.33;;;9.90;73.10;;;;;;4966163;28;20202;-84
2021/03/28 13:17:17;;;;;;;8.40;5.27;;;10.00;73.30;;;;;;4963760;28;20193;-84
2021/03/28 13:19:47;;;;;;;7.07;5.17;;;10.10;73.80;;;;;;4967134;28;20207;-85
2021/03/28 13:25:28;;;;;;;7.03;4.40;;;9.90;72.40;;;;;;4969771;28;20213;-82
2021/03/28 13:31:39;;;;;;;7.17;4.60;;;10.20;72.30;;;;;;4964167;28;20227;-83
2021/03/28 13:37:34;;;;;;;6.13;3.70;;;10.40;71.10;;;;;;4961596;28;20213;-81
2021/03/28 13:40:24;;;;;;;8.60;4.10;;;10.30;71.20;;;;;;5025117;23;20189;31
2021/03/28 13:43:19;;;;;;;7.67;4.37;;;10.50;71.40;;;;;;4875738;29;20284;-85
2021/03/28 13:45:52;;;;;;;6.97;3.90;;;10.80;70.80;;;;;;4870588;29;20225;-84
2021/03/28 13:48:28;;;;;;;6.53;4.17;;;10.90;70.70;;;;;;4873879;29;20234;-83
2021/03/28 13:51:00;;;;;;;5.20;4.00;;;11.10;70.00;;;;;;4871671;29;20204;-83
2021/03/28 13:53:39;;;;;;;7.20;3.93;;;11.20;69.80;;;;;;4850053;29;20238;-83
2021/03/28 13:56:27;;;;;;;6.10;3.87;;;11.40;69.90;;;;;;4874122;29;20275;-85
2021/03/28 13:59:06;;;;;;;7.07;4.43;;;11.50;69.00;;;;;;4873214;29;20245;-85
2021/03/28 14:01:51;;;;;;;5.90;3.63;;;11.20;69.20;;;;;;4864751;29;20267;-84
2021/03/28 14:04:36;;;;;;;4.07;3.53;;;10.90;69.00;;;;;;4871341;29;20759;-83
2021/03/28 14:07:21;;;;;;;5.67;3.60;;;10.70;68.90;;;;;;4870463;29;20199;-82
2021/03/28 14:09:55;;;;;;;6.53;4.30;;;10.80;68.70;;;;;;4871865;29;20623;-84
2021/03/28 14:12:37;;;;;;;6.60;3.80;;;10.60;68.70;;;;;;4867331;29;20866;-82
2021/03/28 14:15:25;;;;;;;5.70;3.90;;;10.40;68.30;;;;;;4868544;29;20249;-82
2021/03/28 14:18:09;;;;;;;5.70;4.00;;;10.50;68.80;;;;;;4875317;29;20208;-83
2021/03/28 14:20:46;;;;;;;6.60;4.87;;;10.90;68.70;;;;;;4869839;29;20212;-84
2021/03/28 14:23:23;;;;;;;6.63;4.10;;;11.10;68.20;;;;;;4859787;29;20232;-83
2021/03/28 14:25:55;;;;;;;10.20;4.80;;;11.10;68.40;;;;;;4867734;29;20220;-82
2021/03/28 14:28:45;;;;;;;5.90;4.57;;;11.00;68.70;;;;;;4864697;29;20302;-84
2021/03/28 14:31:39;;;;;;;6.67;4.70;;;11.10;69.00;;;;;;4870956;29;20240;-84
2021/03/28 14:34:39;;;;;;;6.07;4.53;;;11.10;69.10;;;;;;4874703;29;20660;-81
2021/03/28 14:38:00;;;;;;;7.33;4.40;;;11.00;69.10;;;;;;4876181;29;20208;-82
2021/03/28 14:40:57;;;;;;;8.27;4.60;;;10.80;68.40;;;;;;4832294;29;20324;-84
2021/03/28 14:43:58;;;;;;;5.77;4.60;;;10.50;68.80;;;;;;4879805;29;20325;-83
2021/03/28 14:46:42;;;;;;;8.00;4.90;;;10.40;69.50;;;;;;4849462;29;20216;-84
2021/03/28 14:49:19;;;;;;;6.97;5.20;;;10.40;69.40;;;;;;4898710;29;20219;-83
2021/03/28 14:52:17;;;;;;;9.53;4.57;;;10.40;69.60;;;;;;4897010;29;20199;-84
2021/03/28 14:54:59;;;;;;;7.77;4.83;;;10.40;69.30;;;;;;4883311;29;20383;-84
2021/03/28 14:57:35;;;;;;;7.83;4.93;;;10.20;69.80;;;;;;4888068;29;20213;-85
2021/03/28 15:00:23;;;;;;;9.00;4.90;;;10.10;70.00;;;;;;4891222;29;20208;-83